.
WxDataArchive / Data Records for 2006-01-18
2006-01-17 January 2006 2006-01-19

Data Records for Wednesday, 18 January 2006

Time	Temp	Chill	HIndex	Humid	Dewpt	 Wind 	HiWind	WindDir	Rain 	Barom 
-----	----	-----	------	-----	-----	------	------	-------	-----	----- 
00:00	30.3	30.3	30.3	92	28.3	3	5	270	0.00	29.455 
00:05	30.1	30.1	30.1	92	28.1	2	6	248	0.00	29.455 
00:10	30.1	30.1	30.1	92	28.1	3	9	270	0.00	29.455 
00:15	30.0	30.0	30.0	92	28.0	2	10	270	0.00	29.455 
00:20	30.0	30.0	30.0	92	28.0	3	9	270	0.00	29.455 
00:25	29.8	29.8	29.8	92	27.8	3	5	270	0.00	29.455 
00:30	29.8	29.8	29.8	92	27.8	3	7	270	0.00	29.444 
00:35	29.8	29.8	29.8	92	27.8	3	6	248	0.00	29.444 
00:40	29.7	29.7	29.7	92	27.7	3	10	270	0.00	29.444 
00:45	29.7	29.7	29.7	92	27.7	2	6	270	0.00	29.456 
00:50	29.7	29.7	29.7	91	27.4	3	9	270	0.00	29.456 
00:55	29.7	29.7	29.7	91	27.4	2	9	248	0.00	29.456 
01:00	29.5	29.5	29.5	91	27.2	3	9	270	0.00	29.462 
01:05	29.5	29.5	29.5	91	27.2	2	5	270	0.00	29.462 
01:10	29.4	29.4	29.4	91	27.1	3	5	270	0.00	29.462 
01:15	29.4	29.4	29.4	91	27.1	3	7	270	0.00	29.457 
01:20	29.5	29.5	29.5	92	27.5	3	6	270	0.00	29.457 
01:25	29.4	29.4	29.4	91	27.1	3	7	270	0.00	29.457 
01:30	29.3	29.3	29.3	91	27.0	3	7	270	0.00	29.465 
01:35	29.3	29.3	29.3	91	27.0	2	6	248	0.00	29.465 
01:40	29.1	29.1	29.1	92	27.1	3	8	270	0.00	29.465 
01:45	29.1	24.7	29.1	92	27.1	4	10	270	0.00	29.468 
01:50	29.0	24.6	29.0	91	26.7	4	11	270	0.00	29.468 
01:55	28.8	24.4	28.8	91	26.5	4	8	270	0.00	29.468 
02:00	28.7	24.3	28.7	91	26.4	4	9	248	0.00	29.480 
02:05	28.5	28.5	28.5	92	26.5	2	5	248	0.00	29.480 
02:10	28.5	28.5	28.5	92	26.5	3	7	248	0.00	29.480 
02:15	28.2	23.7	28.2	92	26.2	4	9	248	0.00	29.487 
02:20	28.1	23.6	28.1	92	26.1	4	12	270	0.00	29.487 
02:25	27.9	22.3	27.9	91	25.6	5	11	270	0.00	29.487 
02:30	27.8	23.2	27.8	91	25.5	4	11	270	0.00	29.491 
02:35	27.6	21.9	27.6	91	25.3	5	10	270	0.00	29.491 
02:40	27.5	21.8	27.5	91	25.2	5	11	270	0.00	29.491 
02:45	27.3	22.6	27.3	91	25.0	4	11	270	0.00	29.507 
02:50	27.2	21.4	27.2	91	24.9	5	12	270	0.00	29.507 
02:55	27.0	22.3	27.0	91	24.7	4	8	270	0.00	29.507 
03:00	27.0	22.3	27.0	91	24.7	4	9	270	0.00	29.515 
03:05	26.9	22.2	26.9	91	24.6	4	9	270	0.00	29.515 
03:10	26.7	20.9	26.7	91	24.4	5	13	270	0.00	29.515 
03:15	26.7	26.7	26.7	91	24.4	3	9	270	0.00	29.524 
03:20	26.6	26.6	26.6	91	24.3	3	9	270	0.00	29.524 
03:25	26.6	20.7	26.6	91	24.3	5	12	248	0.00	29.524 
03:30	26.4	26.4	26.4	91	24.1	3	9	248	0.00	29.538 
03:35	26.3	21.5	26.3	91	24.0	4	9	270	0.00	29.538 
03:40	26.1	21.3	26.1	91	23.8	4	11	270	0.00	29.538 
03:45	26.1	21.3	26.1	91	23.8	4	10	270	0.00	29.539 
03:50	26.0	20.0	26.0	91	23.7	5	13	270	0.00	29.539 
03:55	25.8	20.9	25.8	91	23.5	4	13	270	0.00	29.539 
04:00	25.8	20.9	25.8	91	23.5	4	8	270	0.00	29.540 
04:05	25.7	25.7	25.7	91	23.4	3	9	270	0.00	29.540 
04:10	25.7	20.8	25.7	90	23.2	4	13	270	0.00	29.540 
04:15	25.6	25.6	25.6	91	23.3	3	7	270	0.00	29.548 
04:20	25.6	19.6	25.6	90	23.1	5	13	270	0.00	29.548 
04:25	25.4	19.3	25.4	90	22.9	5	12	270	0.00	29.548 
04:30	25.3	25.3	25.3	90	22.8	3	9	270	0.00	29.556 
04:35	25.3	25.3	25.3	90	22.8	3	10	248	0.00	29.556 
04:40	25.1	20.1	25.1	90	22.6	4	10	270	0.00	29.556 
04:45	25.1	20.1	25.1	89	22.3	4	10	270	0.00	29.558 
04:50	25.1	20.1	25.1	89	22.3	4	11	270	0.00	29.558 
04:55	25.0	25.0	25.0	89	22.2	3	7	270	0.00	29.558 
05:00	25.0	25.0	25.0	89	22.2	3	9	270	0.00	29.564 
05:05	25.0	20.0	25.0	89	22.2	4	10	270	0.00	29.564 
05:10	25.0	20.0	25.0	89	22.2	4	10	270	0.00	29.564 
05:15	25.0	25.0	25.0	89	22.2	3	9	270	0.00	29.577 
05:20	24.8	19.8	24.8	89	22.0	4	9	270	0.00	29.577 
05:25	25.0	20.0	25.0	89	22.2	4	11	270	0.00	29.577 
05:30	25.0	20.0	25.0	89	22.2	4	14	270	0.00	29.590 
05:35	25.0	20.0	25.0	90	22.5	4	11	270	0.00	29.590 
05:40	25.0	18.9	25.0	89	22.2	5	14	270	0.00	29.590 
05:45	24.7	17.5	24.7	88	21.7	6	15	270	0.00	29.603 
05:50	24.7	18.5	24.7	89	21.9	5	13	270	0.00	29.603 
05:55	24.7	17.5	24.7	88	21.7	6	13	270	0.00	29.603 
06:00	24.5	18.3	24.5	88	21.5	5	12	270	0.00	29.606 
06:05	24.5	17.3	24.5	86	20.9	6	13	270	0.00	29.606 
06:10	24.4	19.3	24.4	85	20.6	4	11	270	0.00	29.606 
06:15	24.2	17.9	24.2	84	20.1	5	11	270	0.00	29.618 
06:20	24.2	17.9	24.2	84	20.1	5	12	270	0.00	29.618 
06:25	24.2	17.9	24.2	83	19.8	5	13	270	0.00	29.618 
06:30	24.2	17.9	24.2	82	19.5	5	12	270	0.00	29.626 
06:35	24.2	19.1	24.2	83	19.8	4	11	270	0.00	29.626 
06:40	24.2	17.9	24.2	83	19.8	5	12	270	0.00	29.626 
06:45	24.2	17.9	24.2	83	19.8	5	13	270	0.00	29.639 
06:50	24.2	17.9	24.2	83	19.8	5	10	270	0.00	29.639 
06:55	24.1	19.0	24.1	84	20.0	4	11	270	0.00	29.639 
07:00	24.1	17.8	24.1	83	19.7	5	12	270	0.00	29.649 
07:05	24.1	17.8	24.1	83	19.7	5	15	270	0.00	29.649 
07:10	24.1	17.8	24.1	82	19.4	5	10	270	0.00	29.649 
07:15	23.9	17.6	23.9	82	19.2	5	13	270	0.00	29.658 
07:20	23.9	17.6	23.9	82	19.2	5	13	270	0.00	29.658 
07:25	23.9	17.6	23.9	82	19.2	5	12	270	0.00	29.658 
07:30	23.9	18.7	23.9	82	19.2	4	10	270	0.00	29.666 
07:35	23.9	17.6	23.9	81	18.9	5	15	270	0.00	29.666 
07:40	23.9	16.6	23.9	80	18.6	6	15	270	0.00	29.666 
07:45	23.9	17.6	23.9	80	18.6	5	12	270	0.00	29.673 
07:50	23.9	16.6	23.9	80	18.6	6	14	270	0.00	29.673 
07:55	24.1	16.8	24.1	80	18.8	6	16	248	0.00	29.673 
08:00	24.1	17.8	24.1	80	18.8	5	10	270	0.00	29.683 
08:05	24.1	17.8	24.1	80	18.8	5	14	270	0.00	29.683 
08:10	24.1	24.1	24.1	81	19.1	3	9	270	0.00	29.683 
08:15	24.1	19.0	24.1	80	18.8	4	12	270	0.00	29.691 
08:20	24.2	16.9	24.2	80	18.9	6	14	270	0.00	29.691 
08:25	24.2	17.9	24.2	80	18.9	5	15	270	0.00	29.691 
08:30	24.2	17.9	24.2	80	18.9	5	11	270	0.00	29.696 
08:35	24.2	17.9	24.2	80	18.9	5	10	270	0.00	29.696 
08:40	24.4	16.3	24.4	79	18.8	7	15	270	0.00	29.696 
08:45	24.4	18.1	24.4	80	19.1	5	17	270	0.00	29.705 
08:50	24.4	17.2	24.4	80	19.1	6	12	248	0.00	29.705 
08:55	24.4	19.3	24.4	80	19.1	4	11	270	0.00	29.705 
09:00	24.4	18.1	24.4	80	19.1	5	18	270	0.00	29.718 
09:05	24.5	18.3	24.5	80	19.2	5	13	270	0.00	29.718 
09:10	24.4	18.1	24.4	81	19.4	5	12	270	0.00	29.718 
09:15	24.5	17.3	24.5	81	19.5	6	14	270	0.00	29.722 
09:20	24.4	18.1	24.4	81	19.4	5	13	270	0.00	29.722 
09:25	24.2	16.9	24.2	80	18.9	6	17	270	0.00	29.722 
09:30	24.1	16.8	24.1	79	18.5	6	13	270	0.00	29.733 
09:35	23.8	18.6	23.8	80	18.5	4	13	270	0.00	29.733 
09:40	23.6	18.4	23.6	81	18.6	4	10	270	0.00	29.733 
09:45	23.5	17.1	23.5	80	18.3	5	11	270	0.00	29.740 
09:50	23.2	14.1	23.2	76	16.8	8	16	270	0.00	29.740 
09:55	23.0	13.9	23.0	74	16.0	8	20	270	0.00	29.740 
10:00	23.0	15.5	23.0	75	16.3	6	19	270	0.00	29.752 
10:05	23.0	17.7	23.0	76	16.6	4	10	270	0.00	29.752 
10:10	23.0	16.5	23.0	75	16.3	5	15	270	0.00	29.752 
10:15	23.2	17.9	23.2	76	16.8	4	11	270	0.00	29.757 
10:20	23.3	23.3	23.3	76	16.9	3	6	270	0.00	29.757 
10:25	23.3	16.9	23.3	75	16.6	5	14	270	0.00	29.757 
10:30	23.3	16.9	23.3	75	16.6	5	12	270	0.00	29.771 
10:35	23.2	15.8	23.2	75	16.5	6	16	270	0.00	29.771 
10:40	23.2	15.8	23.2	74	16.2	6	12	270	0.00	29.771 
10:45	23.2	16.7	23.2	75	16.5	5	10	270	0.00	29.785 
10:50	23.2	14.9	23.2	74	16.2	7	18	248	0.00	29.785 
10:55	23.0	15.5	23.0	75	16.3	6	12	270	0.00	29.785 
11:00	23.0	15.5	23.0	75	16.3	6	15	270	0.00	29.790 
11:05	23.2	16.7	23.2	74	16.2	5	16	270	0.00	29.790 
11:10	23.3	16.9	23.3	74	16.3	5	14	270	0.00	29.790 
11:15	23.3	16.9	23.3	73	15.9	5	14	270	0.00	29.802 
11:20	23.3	18.0	23.3	73	15.9	4	9	270	0.00	29.802 
11:25	23.5	17.1	23.5	72	15.8	5	13	270	0.00	29.802 
11:30	23.6	18.4	23.6	72	15.9	4	11	270	0.00	29.803 
11:35	23.6	16.2	23.6	71	15.6	6	14	270	0.00	29.803 
11:40	23.5	16.1	23.5	72	15.8	6	15	270	0.00	29.803 
11:45	23.5	17.1	23.5	71	15.5	5	16	270	0.00	29.802 
11:50	23.2	14.9	23.2	71	15.2	7	17	270	0.00	29.802 
11:55	23.3	23.3	23.3	73	15.9	3	6	270	0.00	29.802 
12:00	23.5	17.1	23.5	72	15.8	5	16	270	0.00	29.801 
12:05	23.3	18.0	23.3	73	15.9	4	11	270	0.00	29.801 
12:10	23.3	18.0	23.3	75	16.6	4	10	270	0.00	29.801 
12:15	23.3	18.0	23.3	75	16.6	4	11	270	0.00	29.804 
12:20	23.3	18.0	23.3	77	17.2	4	11	248	0.00	29.804 
12:25	23.2	17.9	23.2	77	17.1	4	9	270	0.00	29.804 
12:30	22.9	15.4	22.9	75	16.2	6	16	270	0.00	29.810 
12:35	22.7	13.5	22.7	76	16.3	8	18	270	0.00	29.810 
12:40	22.7	14.3	22.7	75	16.0	7	21	270	0.00	29.810 
12:45	22.7	14.3	22.7	73	15.4	7	19	270	0.00	29.818 
12:50	23.0	15.5	23.0	72	15.3	6	13	270	0.00	29.818 
12:55	23.3	16.9	23.3	72	15.6	5	12	270	0.00	29.818 
13:00	23.3	16.9	23.3	70	15.0	5	15	270	0.00	29.822 
13:05	23.2	14.1	23.2	69	14.6	8	19	270	0.00	29.822 
13:10	23.0	13.9	23.0	68	14.0	8	18	270	0.00	29.822 
13:15	23.5	15.3	23.5	70	15.2	7	21	270	0.00	29.830 
13:20	23.6	15.4	23.6	69	14.9	7	20	270	0.00	29.830 
13:25	23.6	15.4	23.6	69	14.9	7	19	270	0.00	29.830 
13:30	23.3	14.3	23.3	68	14.3	8	16	270	0.00	29.834 
13:35	23.5	16.1	23.5	69	14.9	6	17	270	0.00	29.834 
13:40	23.8	16.5	23.8	69	15.1	6	17	270	0.00	29.834 
13:45	23.9	15.7	23.9	69	15.2	7	17	270	0.00	29.835 
13:50	24.2	15.3	24.2	68	15.2	8	18	270	0.00	29.835 
13:55	24.1	15.2	24.1	69	15.4	8	20	270	0.00	29.835 
14:00	23.9	15.0	23.9	70	15.6	8	17	270	0.00	29.843 
14:05	23.9	16.6	23.9	70	15.6	6	17	270	0.00	29.843 
14:10	24.1	16.8	24.1	70	15.8	6	15	270	0.00	29.843 
14:15	24.4	17.2	24.4	69	15.7	6	20	270	0.00	29.852 
14:20	24.5	19.4	24.5	72	16.8	4	15	270	0.00	29.852 
14:25	24.5	18.3	24.5	71	16.5	5	15	270	0.00	29.852 
14:30	24.7	19.6	24.7	73	17.3	4	9	270	0.00	29.859 
14:35	24.7	18.5	24.7	72	17.0	5	12	270	0.00	29.859 
14:40	24.8	18.6	24.8	71	16.8	5	13	270	0.00	29.859 
14:45	24.8	17.7	24.8	71	16.8	6	20	270	0.00	29.865 
14:50	24.7	14.7	24.7	70	16.3	10	22	270	0.00	29.865 
14:55	24.8	16.8	24.8	70	16.4	7	16	270	0.00	29.865 
15:00	24.8	16.8	24.8	69	16.1	7	18	270	0.00	29.869 
15:05	25.0	17.1	25.0	70	16.6	7	18	270	0.00	29.869 
15:10	25.0	17.1	25.0	70	16.6	7	17	270	0.00	29.869 
15:15	25.0	15.7	25.0	71	16.9	9	17	270	0.00	29.898 
15:20	25.0	16.3	25.0	70	16.6	8	17	270	0.00	29.898 
15:25	25.1	17.2	25.1	71	17.0	7	14	270	0.00	29.898 
15:30	25.3	17.4	25.3	71	17.2	7	17	270	0.00	29.903 
15:35	25.4	18.4	25.4	70	17.0	6	12	270	0.00	29.903 
15:40	25.6	18.6	25.6	71	17.5	6	18	270	0.00	29.903 
15:45	25.7	17.2	25.7	70	17.3	8	17	270	0.00	29.926 
15:50	25.6	17.1	25.6	70	17.2	8	21	270	0.00	29.926 
15:55	25.7	18.7	25.7	71	17.6	6	14	270	0.00	29.926 
16:00	25.8	18.0	25.8	70	17.4	7	17	270	0.00	29.924 
16:05	26.1	20.1	26.1	71	18.0	5	11	270	0.00	29.924 
16:10	26.6	19.8	26.6	69	17.8	6	17	270	0.00	29.924 
16:15	26.7	19.1	26.7	69	17.9	7	17	270	0.00	29.917 
16:20	26.7	20.9	26.7	69	17.9	5	13	270	0.00	29.917 
16:25	26.6	19.0	26.6	69	17.8	7	14	270	0.00	29.917 
16:30	26.6	19.8	26.6	69	17.8	6	12	270	0.00	29.923 
16:35	26.3	18.6	26.3	70	17.9	7	15	270	0.00	29.923 
16:40	26.3	18.6	26.3	70	17.9	7	17	248	0.00	29.923 
16:45	26.3	18.6	26.3	71	18.2	7	18	270	0.00	29.947 
16:50	26.4	21.6	26.4	72	18.6	4	10	270	0.00	29.947 
16:55	26.4	20.5	26.4	72	18.6	5	13	270	0.00	29.947 
17:00	26.4	19.6	26.4	72	18.6	6	16	248	0.00	29.952 
17:05	26.4	18.7	26.4	72	18.6	7	17	270	0.00	29.952 
17:10	26.6	19.8	26.6	73	19.1	6	13	270	0.00	29.952 
17:15	26.6	19.8	26.6	73	19.1	6	16	270	0.00	29.965 
17:20	26.7	20.9	26.7	73	19.2	5	10	270	0.00	29.965 
17:25	26.7	22.0	26.7	73	19.2	4	12	270	0.00	29.965 
17:30	26.7	20.9	26.7	73	19.2	5	14	270	0.00	29.972 
17:35	26.7	20.9	26.7	72	18.9	5	13	248	0.00	29.972 
17:40	26.7	20.9	26.7	72	18.9	5	15	270	0.00	29.972 
17:45	26.6	21.8	26.6	73	19.1	4	9	248	0.00	29.973 
17:50	26.6	20.7	26.6	73	19.1	5	12	248	0.00	29.973 
17:55	26.6	21.8	26.6	73	19.1	4	9	270	0.00	29.973 
18:00	26.4	21.6	26.4	73	18.9	4	8	248	0.00	29.972 
18:05	26.4	21.6	26.4	74	19.3	4	10	270	0.00	29.972 
18:10	26.4	26.4	26.4	74	19.3	3	10	248	0.00	29.972 
18:15	26.3	26.3	26.3	74	19.2	2	7	248	0.00	29.979 
18:20	26.3	26.3	26.3	74	19.2	3	6	248	0.00	29.979 
18:25	26.3	26.3	26.3	75	19.5	2	4	248	0.00	29.979 
18:30	26.3	26.3	26.3	75	19.5	3	7	248	0.00	29.989 
18:35	26.3	26.3	26.3	75	19.5	3	7	248	0.00	29.989 
18:40	26.3	26.3	26.3	75	19.5	3	6	248	0.00	29.989 
18:45	26.3	26.3	26.3	75	19.5	3	10	248	0.00	29.996 
18:50	26.4	21.6	26.4	75	19.6	4	9	248	0.00	29.996 
18:55	26.4	26.4	26.4	75	19.6	3	6	248	0.00	29.996 
19:00	26.4	26.4	26.4	76	19.9	3	6	248	0.00	29.999 
19:05	26.4	26.4	26.4	76	19.9	2	5	248	0.00	29.999 
19:10	26.4	26.4	26.4	76	19.9	2	6	248	0.00	29.999 
19:15	26.4	26.4	26.4	76	19.9	3	7	248	0.00	30.001 
19:20	26.6	26.6	26.6	76	20.1	3	10	248	0.00	30.001 
19:25	26.6	26.6	26.6	77	20.4	3	10	248	0.00	30.001 
19:30	26.6	26.6	26.6	77	20.4	3	7	248	0.00	29.997 
19:35	26.7	26.7	26.7	77	20.5	3	7	248	0.00	29.997 
19:40	26.7	26.7	26.7	77	20.5	3	6	248	0.00	29.997 
19:45	26.7	26.7	26.7	77	20.5	3	6	248	0.00	30.009 
19:50	26.7	26.7	26.7	77	20.5	3	9	248	0.00	30.009 
19:55	26.9	26.9	26.9	77	20.7	3	9	248	0.00	30.009 
20:00	27.0	27.0	27.0	77	20.8	3	10	248	0.00	30.010 
20:05	27.2	27.2	27.2	77	21.0	3	7	248	0.00	30.010 
20:10	27.2	27.2	27.2	78	21.3	3	9	248	0.00	30.010 
20:15	27.3	27.3	27.3	78	21.4	3	8	248	0.00	30.010 
20:20	27.5	27.5	27.5	78	21.6	3	11	248	0.00	30.010 
20:25	27.6	27.6	27.6	78	21.7	3	7	248	0.00	30.010 
20:30	27.6	27.6	27.6	77	21.4	3	9	248	0.00	30.010 
20:35	27.8	23.2	27.8	77	21.5	4	12	248	0.00	30.010 
20:40	27.9	23.3	27.9	77	21.6	4	10	248	0.00	30.010 
20:45	27.9	23.3	27.9	77	21.6	4	9	248	0.00	30.021 
20:50	27.9	23.3	27.9	77	21.6	4	9	248	0.00	30.021 
20:55	28.1	23.6	28.1	77	21.8	4	10	248	0.00	30.021 
21:00	28.1	23.6	28.1	76	21.5	4	15	248	0.00	30.026 
21:05	28.2	28.2	28.2	76	21.6	3	8	248	0.00	30.026 
21:10	28.4	23.9	28.4	76	21.8	4	10	248	0.00	30.026 
21:15	28.5	24.0	28.5	76	21.9	4	9	248	0.00	30.035 
21:20	28.5	28.5	28.5	76	21.9	3	10	248	0.00	30.035 
21:25	28.7	24.3	28.7	75	21.8	4	9	248	0.00	30.035 
21:30	28.7	24.3	28.7	75	21.8	4	10	248	0.00	30.040 
21:35	28.8	24.4	28.8	75	21.9	4	9	270	0.00	30.040 
21:40	28.8	24.4	28.8	75	21.9	4	11	248	0.00	30.040 
21:45	28.7	28.7	28.7	75	21.8	3	7	248	0.00	30.041 
21:50	28.7	28.7	28.7	75	21.8	3	7	248	0.00	30.041 
21:55	28.7	28.7	28.7	75	21.8	3	11	248	0.00	30.041 
22:00	28.8	28.8	28.8	75	21.9	3	6	248	0.00	30.040 
22:05	29.0	24.6	29.0	75	22.1	4	10	248	0.00	30.040 
22:10	29.1	24.7	29.1	74	21.9	4	10	248	0.00	30.040 
22:15	29.3	25.0	29.3	75	22.4	4	12	248	0.00	30.040 
22:20	29.4	24.0	29.4	74	22.2	5	12	248	0.00	30.040 
22:25	29.5	25.2	29.5	74	22.3	4	11	248	0.00	30.040 
22:30	29.5	29.5	29.5	74	22.3	3	7	248	0.00	30.040 
22:35	29.5	25.2	29.5	74	22.3	4	10	248	0.00	30.040 
22:40	29.7	25.4	29.7	74	22.4	4	11	248	0.00	30.040 
22:45	29.5	29.5	29.5	74	22.3	3	6	248	0.00	30.042 
22:50	29.5	29.5	29.5	74	22.3	3	5	248	0.00	30.042 
22:55	29.4	29.4	29.4	75	22.5	2	5	248	0.00	30.042 
23:00	29.4	29.4	29.4	76	22.8	2	4	248	0.00	30.040 
23:05	29.5	29.5	29.5	76	22.9	1	4	248	0.00	30.040 
23:10	29.7	29.7	29.7	75	22.8	2	5	248	0.00	30.040 
23:15	30.0	30.0	30.0	75	23.1	3	6	248	0.00	30.039 
23:20	30.1	30.1	30.1	75	23.2	2	6	248	0.00	30.039 
23:25	30.3	30.3	30.3	74	23.0	2	5	248	0.00	30.039 
23:30	30.3	30.3	30.3	75	23.3	2	4	248	0.00	30.038 
23:35	30.3	30.3	30.3	75	23.3	1	3	270	0.00	30.038 
23:40	30.4	30.4	30.4	75	23.4	1	4	202	0.00	30.038 
23:45	30.4	30.4	30.4	75	23.4	1	2	292	0.00	30.038 
23:50	30.6	30.6	30.6	75	23.6	1	3	248	0.00	30.038 
23:55	30.6	30.6	30.6	74	23.3	1	5	248	0.00	30.038 

CoCoRaHS
IN-AL-39
A2 Web Hosting
Creative Commons License
GoDaddy
Look for:

loaded 2017-10-16 20:28:51 • last modified 2010-11-18 10:43:29
Privacy PolicyDisclaimer
• wx.awcolley.com is powered by PmWiki v.2002016 •
• all content (unless otherwise noted) © 2017 A W Colley